Time;durP1;ratioP1;P1;durP2;ratioP2;P2;SDS_P1;SDS_P2;PMS_P1;PMS_P2;Temp;Humidity;BMP_temperature;BMP_pressure;BME280_temperature;BME280_humidity;BME280_pressure;Samples;Min_cycle;Max_cycle;Signal;HPM_P1;HPM_P2
2022/05/09 00:03:14;;;;;;;3.72;0.93;;;17.00;55.60;;;;;;20722898;28;20042;-72
2022/05/09 00:13:14;;;;;;;2.10;0.98;;;16.90;55.60;;;;;;20723245;28;20129;-72
2022/05/09 00:23:15;;;;;;;3.63;1.13;;;16.90;55.60;;;;;;20708390;28;20053;-72
2022/05/09 00:33:16;;;;;;;3.33;1.17;;;16.90;55.60;;;;;;20753936;28;20132;-72
2022/05/09 00:43:35;;;;;;;2.20;1.13;;;16.90;55.60;;;;;;20736820;28;20042;-72
2022/05/09 00:53:38;;;;;;;2.70;0.88;;;16.90;55.60;;;;;;20738418;28;20089;-72
2022/05/09 01:03:43;;;;;;;2.88;0.90;;;16.90;55.60;;;;;;20718996;28;20148;-72
2022/05/09 01:13:45;;;;;;;2.67;1.05;;;16.90;55.50;;;;;;20734708;28;20445;-73
2022/05/09 01:23:46;;;;;;;1.75;1.05;;;16.80;55.40;;;;;;20717665;28;20038;-73
2022/05/09 01:33:50;;;;;;;2.13;1.00;;;16.80;55.40;;;;;;20733148;28;20033;-72
2022/05/09 01:43:55;;;;;;;1.63;0.80;;;16.80;55.30;;;;;;20716675;28;20161;-72
2022/05/09 01:53:55;;;;;;;2.67;0.70;;;16.80;55.30;;;;;;20716759;28;20069;-72
2022/05/09 02:03:56;;;;;;;2.63;0.80;;;16.80;55.20;;;;;;20730610;28;20125;-72
2022/05/09 02:13:56;;;;;;;3.53;1.00;;;16.70;55.10;;;;;;20713335;28;20084;-72
2022/05/09 02:23:57;;;;;;;0.93;0.68;;;16.70;55.00;;;;;;20729819;28;20300;-75
2022/05/09 02:33:58;;;;;;;2.10;1.00;;;16.70;55.00;;;;;;20728283;28;20459;-72
2022/05/09 02:43:59;;;;;;;1.92;0.90;;;16.70;55.00;;;;;;20727410;28;20034;-72
2022/05/09 02:53:59;;;;;;;2.08;1.25;;;16.70;55.00;;;;;;20744290;28;20172;-71
2022/05/09 03:14:19;;;;;;;2.38;1.30;;;16.60;55.00;;;;;;20630703;28;20045;-72
2022/05/09 03:24:19;;;;;;;2.83;0.95;;;16.60;55.00;;;;;;20628037;28;20388;-72
2022/05/09 03:34:20;;;;;;;1.97;1.10;;;16.60;55.00;;;;;;20627099;28;20085;-73
2022/05/09 03:44:21;;;;;;;1.65;0.80;;;16.60;55.10;;;;;;20611291;28;20331;-72
2022/05/09 03:54:21;;;;;;;1.83;0.80;;;16.50;54.90;;;;;;20626928;28;20030;-73
2022/05/09 04:04:22;;;;;;;2.28;1.02;;;16.50;54.80;;;;;;20640202;28;20121;-73
2022/05/09 04:24:43;;;;;;;1.55;0.82;;;16.50;54.70;;;;;;20740640;28;20037;-72
2022/05/09 04:34:43;;;;;;;1.98;0.90;;;16.50;54.50;;;;;;20722059;28;20402;-73
2022/05/09 04:44:44;;;;;;;1.23;0.90;;;16.50;54.50;;;;;;20737199;28;20029;-72
2022/05/09 04:54:44;;;;;;;1.23;0.80;;;16.40;54.40;;;;;;20752148;28;20093;-75
2022/05/09 05:04:45;;;;;;;1.05;0.80;;;16.40;54.30;;;;;;20656038;28;20050;-73
2022/05/09 05:14:48;;;;;;;1.98;0.90;;;16.40;54.40;;;;;;20697607;28;20038;-75
2022/05/09 05:24:53;;;;;;;2.35;0.82;;;16.40;54.70;;;;;;20703769;28;20037;-78
2022/05/09 05:34:53;;;;;;;1.57;0.90;;;16.40;55.00;;;;;;20734972;28;20034;-73
2022/05/09 05:44:54;;;;;;;1.43;0.73;;;16.50;55.30;;;;;;20715993;28;20038;-73
2022/05/09 05:54:55;;;;;;;3.50;1.20;;;16.40;55.20;;;;;;20731309;28;20327;-74
2022/05/09 06:04:55;;;;;;;4.68;1.30;;;16.50;55.50;;;;;;20731444;28;20393;-74
2022/05/09 06:25:18;;;;;;;2.80;0.82;;;16.50;55.40;;;;;;20709226;28;20041;-73
2022/05/09 06:35:23;;;;;;;4.78;1.00;;;16.60;55.50;;;;;;20761786;28;20029;-73
2022/05/09 06:45:24;;;;;;;1.73;0.65;;;16.60;55.70;;;;;;20787712;28;20076;-73
2022/05/09 06:55:25;;;;;;;2.45;0.60;;;16.60;56.10;;;;;;20676032;28;20041;-73
2022/05/09 07:05:26;;;;;;;3.00;0.82;;;16.60;55.90;;;;;;21156431;22;20049;-73
2022/05/09 07:15:28;;;;;;;3.63;0.98;;;16.60;55.80;;;;;;20699681;28;20057;-73
2022/05/09 07:25:29;;;;;;;2.35;0.85;;;16.70;55.90;;;;;;20692328;28;20042;-73
2022/05/09 07:35:31;;;;;;;3.25;1.02;;;16.70;56.00;;;;;;20707468;28;20451;-73
2022/05/09 07:45:31;;;;;;;2.50;1.00;;;16.70;56.10;;;;;;20692103;28;20160;-74
2022/05/09 07:55:33;;;;;;;3.03;1.30;;;16.70;56.10;;;;;;20677249;28;20461;-75
2022/05/09 08:05:34;;;;;;;1.58;0.57;;;16.80;56.80;;;;;;20715415;28;20049;-77
2022/05/09 08:15:35;;;;;;;10.82;3.38;;;16.80;56.20;;;;;;20770598;28;20039;-76
2022/05/09 08:25:36;;;;;;;5.82;1.60;;;16.80;56.30;;;;;;20787046;28;20136;-76
2022/05/09 08:35:36;;;;;;;3.25;0.80;;;16.80;56.30;;;;;;20696893;28;20042;-77
2022/05/09 08:45:37;;;;;;;2.08;1.02;;;16.90;56.30;;;;;;20710353;28;20614;-76
2022/05/09 08:55:39;;;;;;;1.92;1.05;;;16.90;56.30;;;;;;20712810;28;20493;-77
2022/05/09 09:05:42;;;;;;;3.90;1.00;;;16.90;56.30;;;;;;20741057;28;20116;-76
2022/05/09 09:16:18;;;;;;;1.85;0.60;;;16.90;56.30;;;;;;20733399;28;20489;-76
2022/05/09 09:26:30;;;;;;;2.70;0.73;;;16.90;56.30;;;;;;20745932;28;20050;-75
2022/05/09 09:36:35;;;;;;;2.72;1.15;;;16.90;56.30;;;;;;20758487;28;20084;-74
2022/05/09 09:47:03;;;;;;;1.43;0.70;;;16.90;56.30;;;;;;20715320;28;20049;-74
2022/05/09 09:57:14;;;;;;;1.27;0.73;;;16.90;56.40;;;;;;20715271;28;20033;-74
2022/05/09 10:07:30;;;;;;;1.00;0.50;;;16.90;56.80;;;;;;20714724;28;20046;-74
2022/05/09 10:17:32;;;;;;;11.63;1.65;;;16.90;56.50;;;;;;20698442;28;20038;-78
2022/05/09 10:27:32;;;;;;;17.23;1.25;;;17.00;56.50;;;;;;20729556;28;20429;-76
2022/05/09 10:37:40;;;;;;;2.83;1.23;;;17.00;56.70;;;;;;20755412;28;20026;-78
2022/05/09 10:47:54;;;;;;;4.05;1.27;;;17.00;56.80;;;;;;20679656;28;20051;-78
2022/05/09 10:58:03;;;;;;;4.90;0.98;;;17.00;56.90;;;;;;20739508;28;20037;-75
2022/05/09 11:08:10;;;;;;;1.38;0.68;;;17.00;57.10;;;;;;20720003;28;20037;-76
2022/05/09 11:18:27;;;;;;;2.08;0.75;;;17.00;57.20;;;;;;20677949;28;20038;-77
2022/05/09 11:29:04;;;;;;;1.88;0.70;;;17.00;57.30;;;;;;20707894;28;20065;-76
2022/05/09 11:39:20;;;;;;;2.80;0.95;;;17.00;57.40;;;;;;20700030;28;20442;-77
2022/05/09 11:49:42;;;;;;;1.50;0.70;;;17.10;57.50;;;;;;20727654;28;20459;-77
2022/05/09 11:59:53;;;;;;;1.35;0.60;;;17.10;57.30;;;;;;20738652;28;20038;-77
2022/05/09 12:10:03;;;;;;;2.13;0.63;;;17.10;57.30;;;;;;20691762;28;20042;-76
2022/05/09 12:20:06;;;;;;;2.97;1.00;;;17.10;57.30;;;;;;20698226;28;20390;-78
2022/05/09 12:30:14;;;;;;;1.50;0.88;;;17.10;57.00;;;;;;20726554;28;20482;-72
2022/05/09 12:40:19;;;;;;;3.63;0.70;;;17.20;57.10;;;;;;20706512;28;20033;-76
2022/05/09 12:50:31;;;;;;;1.13;0.50;;;17.20;57.20;;;;;;20720971;28;20085;-74
2022/05/09 13:00:32;;;;;;;1.08;0.63;;;17.20;57.10;;;;;;20722159;28;20064;-76
2022/05/09 13:10:32;;;;;;;3.05;0.50;;;17.30;57.20;;;;;;20702081;28;20042;-76
2022/05/09 13:20:48;;;;;;;1.42;0.60;;;17.30;57.20;;;;;;20718106;28;20040;-77
2022/05/09 13:30:55;;;;;;;0.38;0.38;;;17.40;57.40;;;;;;20713260;28;20038;-76
2022/05/09 13:41:13;;;;;;;2.13;0.57;;;17.50;57.30;;;;;;20715612;28;20038;-77
2022/05/09 13:51:14;;;;;;;2.85;0.57;;;17.50;57.30;;;;;;20772224;28;20466;-77
2022/05/09 14:01:15;;;;;;;5.80;0.90;;;17.70;57.30;;;;;;20776972;28;20158;-76
2022/05/09 14:11:23;;;;;;;0.70;0.45;;;17.80;57.00;;;;;;20794892;28;20649;-77
2022/05/09 14:21:24;;;;;;;1.33;0.40;;;17.90;56.90;;;;;;20698583;28;20037;-76
2022/05/09 14:31:49;;;;;;;0.95;0.52;;;18.00;57.00;;;;;;20682820;28;20044;-79
2022/05/09 14:41:50;;;;;;;1.20;0.73;;;18.20;56.90;;;;;;20707952;28;20042;-76
2022/05/09 14:52:36;;;;;;;2.08;0.70;;;18.20;56.50;;;;;;20696705;28;20048;-76
2022/05/09 15:02:37;;;;;;;2.58;0.93;;;18.30;55.60;;;;;;20709653;28;20044;-74
2022/05/09 15:12:39;;;;;;;2.80;0.80;;;18.50;55.20;;;;;;20693957;28;20077;-74
2022/05/09 15:22:45;;;;;;;1.48;0.98;;;18.70;55.20;;;;;;20692651;28;20033;-78
2022/05/09 15:32:46;;;;;;;2.17;0.30;;;18.90;55.30;;;;;;20743941;28;20494;-77
2022/05/09 15:42:47;;;;;;;0.82;0.50;;;19.10;55.50;;;;;;20695574;28;20093;-76
2022/05/09 15:52:47;;;;;;;3.65;0.60;;;19.20;55.80;;;;;;20676182;28;20179;-77
2022/05/09 16:02:50;;;;;;;4.13;0.80;;;19.30;55.90;;;;;;20772695;28;20064;-78
2022/05/09 16:12:50;;;;;;;1.60;0.60;;;19.50;56.00;;;;;;20772934;28;20125;-78
2022/05/09 16:22:51;;;;;;;2.27;0.60;;;19.50;56.10;;;;;;20772804;28;20163;-74
2022/05/09 16:32:53;;;;;;;2.60;0.65;;;19.50;56.10;;;;;;20778044;28;20421;-72
2022/05/09 16:42:53;;;;;;;2.17;0.80;;;19.40;56.10;;;;;;20719820;28;20037;-76
2022/05/09 16:52:54;;;;;;;1.05;0.77;;;19.40;56.20;;;;;;20706381;28;20042;-78
2022/05/09 17:02:55;;;;;;;1.48;0.68;;;19.40;56.20;;;;;;20718773;28;20060;-76
2022/05/09 17:12:56;;;;;;;1.63;0.55;;;19.40;56.30;;;;;;20732936;28;20049;-77
2022/05/09 17:22:57;;;;;;;3.33;0.90;;;19.40;56.40;;;;;;20684985;28;20034;-75
2022/05/09 17:33:00;;;;;;;5.13;1.13;;;19.30;56.10;;;;;;20716762;28;20026;-75
2022/05/09 17:43:01;;;;;;;1.27;0.68;;;19.30;56.20;;;;;;20699140;28;20292;-75
2022/05/09 17:53:02;;;;;;;4.65;0.70;;;19.20;56.30;;;;;;20713961;28;20049;-76
2022/05/09 18:03:02;;;;;;;2.80;0.52;;;19.20;56.40;;;;;;20741960;28;20323;-76
2022/05/09 18:13:04;;;;;;;1.17;0.60;;;19.10;56.60;;;;;;20747606;28;20064;-76
2022/05/09 18:23:07;;;;;;;3.05;0.75;;;19.00;56.80;;;;;;20705419;28;20334;-76
2022/05/09 18:33:09;;;;;;;1.27;0.80;;;18.80;56.90;;;;;;20694220;28;20037;-76
2022/05/09 18:43:09;;;;;;;1.83;0.80;;;18.70;57.10;;;;;;20691139;28;20034;-75
2022/05/09 18:53:11;;;;;;;0.85;0.40;;;18.70;57.30;;;;;;20725511;28;20049;-76
2022/05/09 19:03:12;;;;;;;0.65;0.50;;;18.60;57.40;;;;;;20709009;28;20565;-76
2022/05/09 19:13:12;;;;;;;0.60;0.40;;;18.60;57.50;;;;;;20720543;28;20056;-75
2022/05/09 19:23:13;;;;;;;1.40;0.77;;;18.50;57.50;;;;;;20720773;28;20041;-76
2022/05/09 19:33:24;;;;;;;0.82;0.50;;;18.50;57.60;;;;;;20707045;28;20048;-75
2022/05/09 19:43:28;;;;;;;1.88;0.55;;;18.40;57.60;;;;;;20690443;28;20117;-75
2022/05/09 20:03:48;;;;;;;2.22;0.85;;;18.30;57.60;;;;;;20721801;28;20440;-76
2022/05/09 20:13:51;;;;;;;0.63;0.63;;;18.30;57.70;;;;;;20788188;28;20091;-75
2022/05/09 20:23:55;;;;;;;0.90;0.52;;;18.30;57.70;;;;;;20804881;28;20065;-75
2022/05/09 20:33:56;;;;;;;1.55;0.77;;;18.20;57.70;;;;;;20771676;28;20061;-75
2022/05/09 20:44:02;;;;;;;2.58;0.63;;;18.20;57.70;;;;;;20811889;28;20037;-75
2022/05/09 20:54:03;;;;;;;3.58;0.90;;;18.20;57.70;;;;;;20802746;28;20040;-75
2022/05/09 21:04:07;;;;;;;1.05;0.57;;;18.20;57.70;;;;;;20801432;28;20049;-75
2022/05/09 21:14:08;;;;;;;3.10;1.65;;;18.10;57.70;;;;;;20828480;28;20045;-76
2022/05/09 21:24:12;;;;;;;2.10;0.60;;;18.10;57.70;;;;;;20816534;28;20033;-76
2022/05/09 21:34:14;;;;;;;1.10;0.98;;;18.10;57.80;;;;;;20746123;28;20402;-76
2022/05/09 21:44:17;;;;;;;1.27;0.77;;;18.10;57.80;;;;;;20749310;28;20037;-75
2022/05/09 21:54:22;;;;;;;1.63;1.10;;;18.00;57.70;;;;;;20732789;28;20406;-75
2022/05/09 22:04:24;;;;;;;1.80;0.90;;;18.00;57.70;;;;;;20731266;28;20069;-75
2022/05/09 22:14:25;;;;;;;2.90;1.00;;;18.00;57.70;;;;;;20734582;28;20046;-75
2022/05/09 22:24:27;;;;;;;1.58;0.80;;;18.00;57.70;;;;;;20730111;28;20099;-76
2022/05/09 22:34:28;;;;;;;1.20;0.80;;;18.00;57.70;;;;;;20712833;28;20041;-76
2022/05/09 22:44:29;;;;;;;1.40;0.90;;;18.00;57.70;;;;;;20744585;28;20100;-75
2022/05/09 22:54:30;;;;;;;0.82;0.65;;;18.00;57.70;;;;;;20744064;28;20494;-75
2022/05/09 23:04:31;;;;;;;7.68;1.58;;;17.90;57.70;;;;;;20710646;28;20053;-76
2022/05/09 23:14:36;;;;;;;1.60;0.90;;;17.90;57.70;;;;;;20727928;28;20049;-75
2022/05/09 23:24:36;;;;;;;2.72;1.20;;;17.90;57.60;;;;;;20708371;28;20045;-75
2022/05/09 23:34:37;;;;;;;1.98;1.10;;;17.90;57.60;;;;;;20741419;28;20037;-75
2022/05/09 23:44:38;;;;;;;1.23;0.98;;;17.90;57.60;;;;;;20708111;28;20141;-77
2022/05/09 23:54:38;;;;;;;1.80;1.02;;;17.90;57.60;;;;;;20740147;28;20474;-75
